Time;durP1;ratioP1;P1;durP2;ratioP2;P2;SDS_P1;SDS_P2;PMS_P1;PMS_P2;Temp;Humidity;BMP_temperature;BMP_pressure;BME280_temperature;BME280_humidity;BME280_pressure;Samples;Min_cycle;Max_cycle;Signal;HPM_P1;HPM_P2
2021/01/12 00:00:26;;;;;;;6.75;2.00;;;0.00;99.90;;;;;;5017105;28;20057;-48
2021/01/12 00:02:53;;;;;;;6.57;1.85;;;-0.10;99.90;;;;;;5033166;28;20056;-48
2021/01/12 00:05:20;;;;;;;4.60;2.47;;;-0.10;99.90;;;;;;5029907;28;20046;-48
2021/01/12 00:07:48;;;;;;;3.50;1.60;;;-0.10;99.90;;;;;;5031765;28;20053;-48
2021/01/12 00:10:15;;;;;;;5.95;1.90;;;-0.10;99.90;;;;;;5028606;28;20049;-48
2021/01/12 00:12:42;;;;;;;4.03;1.50;;;-0.10;99.90;;;;;;5031214;28;20041;-49
2021/01/12 00:15:09;;;;;;;3.25;1.10;;;0.00;99.90;;;;;;5026976;28;20061;-49
2021/01/12 00:17:36;;;;;;;5.28;1.92;;;0.00;99.90;;;;;;5017438;28;20141;-48
2021/01/12 00:20:08;;;;;;;3.33;1.10;;;-0.10;99.90;;;;;;5030647;28;20096;-48
2021/01/12 00:22:35;;;;;;;6.85;3.05;;;-0.10;99.90;;;;;;5030311;28;20387;-48
2021/01/12 00:25:02;;;;;;;6.88;3.15;;;-0.10;99.90;;;;;;5016470;28;20049;-48
2021/01/12 00:27:29;;;;;;;3.47;1.48;;;-0.10;99.90;;;;;;5027112;28;20046;-48
2021/01/12 00:29:56;;;;;;;3.67;1.85;;;-0.10;99.90;;;;;;5031232;28;20045;-48
2021/01/12 00:32:27;;;;;;;3.70;1.70;;;-0.10;99.90;;;;;;5026634;28;20046;-49
2021/01/12 00:34:55;;;;;;;4.35;1.52;;;-0.10;99.90;;;;;;5017583;28;20050;-48
2021/01/12 00:37:26;;;;;;;4.00;1.42;;;0.00;99.90;;;;;;5024460;28;20052;-48
2021/01/12 00:39:53;;;;;;;5.90;2.30;;;-0.10;99.90;;;;;;5026225;28;20037;-49
2021/01/12 00:42:20;;;;;;;3.67;1.70;;;-0.30;99.90;;;;;;5031262;28;20059;-48
2021/01/12 00:44:47;;;;;;;2.45;1.35;;;-0.30;99.90;;;;;;5027614;28;20060;-48
2021/01/12 00:47:14;;;;;;;4.35;1.73;;;-0.30;99.90;;;;;;5013180;28;20407;-48
2021/01/12 00:49:41;;;;;;;2.13;1.00;;;-0.30;99.90;;;;;;5031299;28;20038;-48
2021/01/12 00:52:12;;;;;;;5.47;2.08;;;-0.30;99.90;;;;;;5031012;28;20076;-48
2021/01/12 00:54:38;;;;;;;2.75;1.00;;;-0.30;99.90;;;;;;5022253;28;20052;-48
2021/01/12 00:57:05;;;;;;;4.95;1.77;;;-0.40;99.90;;;;;;5029813;28;20406;-48
2021/01/12 00:59:32;;;;;;;2.42;1.33;;;-0.40;99.90;;;;;;5031062;28;20049;-48
2021/01/12 01:02:03;;;;;;;2.17;1.40;;;-0.40;99.90;;;;;;5029998;28;20048;-48
2021/01/12 01:04:30;;;;;;;3.17;1.48;;;-0.40;99.90;;;;;;5016415;28;20057;-48
2021/01/12 01:06:57;;;;;;;1.73;0.90;;;-0.40;99.90;;;;;;5025594;28;20057;-48
2021/01/12 01:09:24;;;;;;;3.53;0.90;;;-0.40;99.90;;;;;;5017048;28;20422;-50
2021/01/12 01:11:51;;;;;;;2.90;1.40;;;-0.40;99.90;;;;;;5031175;28;20053;-49
2021/01/12 01:14:19;;;;;;;1.23;0.80;;;-0.30;99.90;;;;;;5029057;28;20057;-48
2021/01/12 01:16:46;;;;;;;2.17;0.90;;;-0.40;99.90;;;;;;5027220;28;20049;-48
2021/01/12 01:19:13;;;;;;;1.10;0.80;;;-0.40;99.90;;;;;;5030231;28;20075;-48
2021/01/12 01:21:39;;;;;;;1.52;0.80;;;-0.30;99.90;;;;;;5011630;28;20096;-48
2021/01/12 01:24:09;;;;;;;0.98;0.70;;;-0.20;99.90;;;;;;5024536;28;20049;-48
2021/01/12 01:26:36;;;;;;;1.83;0.70;;;-0.20;99.90;;;;;;5024623;28;20054;-48
2021/01/12 01:29:03;;;;;;;4.50;1.45;;;-0.30;99.90;;;;;;5020808;28;20045;-48
2021/01/12 01:31:38;;;;;;;5.55;1.60;;;-0.40;99.90;;;;;;5021336;28;20057;-48
2021/01/12 01:34:05;;;;;;;3.75;1.80;;;-0.50;99.90;;;;;;5025744;28;20046;-48
2021/01/12 01:36:31;;;;;;;6.63;1.92;;;-0.60;99.90;;;;;;5027560;28;20045;-48
2021/01/12 01:38:58;;;;;;;4.38;1.38;;;-0.70;99.90;;;;;;5028816;28;20046;-48
2021/01/12 01:41:24;;;;;;;5.05;2.10;;;-0.80;99.90;;;;;;5028805;28;20116;-48
2021/01/12 01:43:51;;;;;;;2.95;1.70;;;-0.90;99.90;;;;;;5022295;28;20041;-48
2021/01/12 01:46:17;;;;;;;4.10;1.10;;;-0.90;99.90;;;;;;5019766;28;20050;-48
2021/01/12 01:48:47;;;;;;;4.47;2.05;;;-0.90;99.90;;;;;;5020963;28;20129;-48
2021/01/12 01:51:15;;;;;;;6.32;1.08;;;-1.00;99.90;;;;;;5023467;28;20050;-48
2021/01/12 01:53:42;;;;;;;4.65;1.00;;;-1.00;99.90;;;;;;5027527;28;20038;-48
2021/01/12 01:56:09;;;;;;;2.38;1.35;;;-1.00;99.90;;;;;;5029290;28;20547;-48
2021/01/12 01:58:39;;;;;;;1.98;1.50;;;-1.00;99.90;;;;;;5028478;28;20510;-48
2021/01/12 02:01:08;;;;;;;3.40;1.10;;;-1.00;99.90;;;;;;5027484;28;20054;-48
2021/01/12 02:04:15;;;;;;;2.80;1.30;;;-1.10;99.90;;;;;;5031136;28;20045;-48
2021/01/12 02:06:43;;;;;;;2.53;0.80;;;-1.10;99.90;;;;;;5014169;28;20061;-48
2021/01/12 02:09:23;;;;;;;1.65;1.10;;;-1.10;99.90;;;;;;5013602;28;20058;-48
2021/01/12 02:11:56;;;;;;;1.67;0.80;;;-1.20;99.90;;;;;;5025441;28;20049;-49
2021/01/12 02:14:26;;;;;;;2.00;0.90;;;-1.20;99.90;;;;;;5021744;28;20057;-48
2021/01/12 02:16:55;;;;;;;0.70;0.50;;;-1.20;99.90;;;;;;5022564;28;20053;-48
2021/01/12 02:19:25;;;;;;;0.90;0.52;;;-1.20;99.90;;;;;;5027021;28;20084;-48
2021/01/12 02:21:58;;;;;;;1.10;0.60;;;-1.20;99.90;;;;;;5012113;28;20050;-48
2021/01/12 02:24:24;;;;;;;2.63;0.80;;;-1.30;99.90;;;;;;5028296;28;20053;-48
2021/01/12 02:26:51;;;;;;;1.25;0.77;;;-1.30;99.90;;;;;;5025972;28;20490;-48
2021/01/12 02:29:17;;;;;;;1.83;0.80;;;-1.30;99.90;;;;;;5020747;28;20049;-48
2021/01/12 02:31:44;;;;;;;1.00;0.90;;;-1.30;99.90;;;;;;5022703;28;20115;-48
2021/01/12 02:34:16;;;;;;;3.47;0.80;;;-1.40;99.90;;;;;;5030085;28;20917;-49
2021/01/12 02:36:44;;;;;;;1.60;0.93;;;-1.50;99.90;;;;;;5026850;28;20046;-48
2021/01/12 02:39:14;;;;;;;0.90;0.68;;;-1.60;99.90;;;;;;5012560;28;20048;-48
2021/01/12 02:41:41;;;;;;;1.50;0.73;;;-1.60;99.90;;;;;;5027899;28;20492;-48
2021/01/12 02:44:22;;;;;;;2.10;0.90;;;-1.60;99.90;;;;;;5029759;28;20048;-48
2021/01/12 02:46:54;;;;;;;0.93;0.80;;;-1.60;99.90;;;;;;5016013;28;20041;-48
2021/01/12 02:49:22;;;;;;;2.50;0.90;;;-1.70;99.90;;;;;;5029259;28;20053;-48
2021/01/12 02:51:48;;;;;;;3.47;0.90;;;-1.70;99.90;;;;;;5032661;28;20471;-48
2021/01/12 02:54:15;;;;;;;1.75;0.80;;;-1.70;99.90;;;;;;5032656;28;20085;-49
2021/01/12 02:56:41;;;;;;;2.65;0.77;;;-1.70;99.90;;;;;;5018003;28;20045;-48
2021/01/12 02:59:08;;;;;;;1.60;0.82;;;-1.70;99.90;;;;;;5031635;28;20049;-48
2021/01/12 03:01:34;;;;;;;1.65;0.70;;;-1.70;99.90;;;;;;5031984;28;20049;-48
2021/01/12 03:04:01;;;;;;;3.53;1.13;;;-1.80;99.90;;;;;;5029779;28;20132;-48
2021/01/12 03:06:29;;;;;;;2.85;0.98;;;-1.80;99.90;;;;;;5027786;28;20068;-48
2021/01/12 03:08:55;;;;;;;1.48;1.38;;;-1.80;99.90;;;;;;5015460;28;20041;-48
2021/01/12 03:11:22;;;;;;;2.78;0.82;;;-1.80;99.90;;;;;;5026937;28;20069;-48
2021/01/12 03:13:48;;;;;;;1.83;1.15;;;-1.80;99.90;;;;;;5018040;28;20049;-48
2021/01/12 03:16:15;;;;;;;1.65;1.10;;;-1.90;99.90;;;;;;5024513;28;20050;-48
2021/01/12 03:18:41;;;;;;;2.75;0.75;;;-1.90;99.90;;;;;;5028636;28;20053;-48
2021/01/12 03:21:08;;;;;;;2.17;0.82;;;-2.00;99.90;;;;;;5030808;28;20049;-48
2021/01/12 03:23:35;;;;;;;5.78;1.77;;;-2.00;99.90;;;;;;5030878;28;20414;-48
2021/01/12 03:26:02;;;;;;;2.22;1.10;;;-2.00;99.90;;;;;;5032600;28;20057;-48
2021/01/12 03:28:28;;;;;;;3.92;1.55;;;-2.00;99.90;;;;;;5030456;28;20044;-48
2021/01/12 03:31:00;;;;;;;5.65;1.90;;;-2.10;99.90;;;;;;5024555;28;20565;-48
2021/01/12 03:33:29;;;;;;;12.50;4.28;;;-2.20;99.90;;;;;;5031340;28;20056;-48
2021/01/12 03:35:55;;;;;;;21.20;7.20;;;-2.30;99.90;;;;;;5030373;28;21388;-48
2021/01/12 03:38:22;;;;;;;5.30;2.08;;;-2.40;99.90;;;;;;5019935;28;20919;-48
2021/01/12 03:40:48;;;;;;;4.40;1.80;;;-2.30;99.90;;;;;;5027334;28;20050;-48
2021/01/12 03:43:15;;;;;;;1.55;1.25;;;-2.30;99.90;;;;;;5014177;28;20050;-48
2021/01/12 03:45:41;;;;;;;7.32;1.90;;;-2.30;99.90;;;;;;5030837;28;20755;-48
2021/01/12 03:48:09;;;;;;;5.97;1.48;;;-2.30;99.90;;;;;;5032327;28;20046;-48
2021/01/12 03:50:35;;;;;;;3.67;1.35;;;-2.30;99.90;;;;;;5024002;28;20053;-48
2021/01/12 03:53:02;;;;;;;4.10;1.33;;;-2.40;99.90;;;;;;5022487;28;20057;-48
2021/01/12 03:55:30;;;;;;;2.88;1.00;;;-2.40;99.90;;;;;;5031586;28;20045;-47
2021/01/12 03:57:56;;;;;;;2.30;1.52;;;-2.40;99.90;;;;;;5029309;28;20052;-48
2021/01/12 04:00:23;;;;;;;1.73;1.20;;;-2.50;99.90;;;;;;5016718;28;20045;-49
2021/01/12 04:02:49;;;;;;;3.15;1.45;;;-2.50;99.90;;;;;;5029471;28;20426;-47
2021/01/12 04:05:17;;;;;;;1.95;0.70;;;-2.50;99.90;;;;;;5027493;28;20046;-48
2021/01/12 04:07:44;;;;;;;2.83;1.10;;;-2.50;99.90;;;;;;5031815;28;20471;-48
2021/01/12 04:10:11;;;;;;;4.30;0.90;;;-2.50;99.90;;;;;;5025455;28;20053;-50
2021/01/12 04:12:38;;;;;;;3.42;0.90;;;-2.40;99.90;;;;;;5019809;28;20045;-48
2021/01/12 04:15:06;;;;;;;1.00;0.80;;;-2.40;99.90;;;;;;5024206;28;20057;-47
2021/01/12 04:17:33;;;;;;;0.77;0.70;;;-2.30;99.90;;;;;;5028917;28;20064;-49
2021/01/12 04:19:59;;;;;;;1.15;0.80;;;-2.30;99.90;;;;;;5026383;28;20041;-48
2021/01/12 04:22:26;;;;;;;0.90;0.70;;;-2.40;99.90;;;;;;5026818;28;20469;-47
2021/01/12 04:24:53;;;;;;;2.55;1.58;;;-2.40;99.90;;;;;;5029993;28;20053;-48
2021/01/12 04:27:19;;;;;;;5.78;3.58;;;-2.40;99.90;;;;;;5030940;28;20045;-50
2021/01/12 04:29:46;;;;;;;4.35;2.80;;;-2.40;99.90;;;;;;5020574;28;20042;-47
2021/01/12 04:32:12;;;;;;;4.35;1.98;;;-2.40;99.90;;;;;;5024620;28;20041;-48
2021/01/12 04:34:39;;;;;;;8.38;1.20;;;-2.40;99.90;;;;;;5031661;28;20050;-48
2021/01/12 04:37:05;;;;;;;2.13;0.88;;;-2.60;99.90;;;;;;5028690;28;20049;-47
2021/01/12 04:39:32;;;;;;;2.50;1.02;;;-2.70;99.90;;;;;;5024981;28;20053;-48
2021/01/12 04:41:59;;;;;;;2.20;0.90;;;-2.80;99.90;;;;;;5030624;28;20042;-48
2021/01/12 04:44:25;;;;;;;4.20;1.13;;;-2.80;99.90;;;;;;5024690;28;20053;-47
2021/01/12 04:46:52;;;;;;;2.90;1.02;;;-2.80;99.90;;;;;;5022867;28;20057;-47
2021/01/12 04:49:19;;;;;;;1.77;0.98;;;-2.80;99.90;;;;;;5022789;28;20064;-48
2021/01/12 04:51:45;;;;;;;1.27;0.80;;;-2.80;99.90;;;;;;5015879;28;20053;-48
2021/01/12 04:54:12;;;;;;;1.40;0.80;;;-2.80;99.90;;;;;;5025187;28;20088;-47
2021/01/12 04:56:38;;;;;;;1.58;0.70;;;-2.80;99.90;;;;;;5017535;28;20647;-49
2021/01/12 04:59:04;;;;;;;0.90;0.63;;;-2.90;99.90;;;;;;5025658;28;20050;-47
2021/01/12 05:01:32;;;;;;;1.65;0.90;;;-2.80;99.90;;;;;;5018937;28;20061;-47
2021/01/12 05:04:04;;;;;;;2.03;1.27;;;-2.90;99.90;;;;;;5021926;28;20758;-48
2021/01/12 05:06:31;;;;;;;2.20;1.00;;;-2.90;99.90;;;;;;5022812;28;20069;-48
2021/01/12 05:08:58;;;;;;;2.88;1.05;;;-2.90;99.90;;;;;;5020572;28;20406;-47
2021/01/12 05:11:31;;;;;;;1.33;0.85;;;-2.90;99.90;;;;;;5028653;28;20479;-47
2021/01/12 05:14:12;;;;;;;1.45;0.82;;;-2.90;99.90;;;;;;5029454;28;20053;-48
2021/01/12 05:16:49;;;;;;;1.13;0.77;;;-3.00;99.90;;;;;;5030431;28;20451;-47
2021/01/12 05:19:22;;;;;;;0.80;0.70;;;-3.00;99.90;;;;;;5025186;28;20384;-48
2021/01/12 05:21:50;;;;;;;1.70;0.70;;;-2.90;99.90;;;;;;5024955;28;20475;-48
2021/01/12 05:24:19;;;;;;;1.85;1.10;;;-3.00;99.90;;;;;;5027713;28;20053;-48
2021/01/12 05:26:47;;;;;;;3.80;1.38;;;-2.90;99.90;;;;;;5012799;28;20064;-48
2021/01/12 05:29:14;;;;;;;1.42;1.00;;;-2.90;99.90;;;;;;5027819;28;20136;-47
2021/01/12 05:31:45;;;;;;;3.45;0.80;;;-2.90;99.90;;;;;;5019510;28;20049;-48
2021/01/12 05:34:13;;;;;;;1.65;0.70;;;-2.80;99.90;;;;;;5018839;28;20181;-48
2021/01/12 05:36:51;;;;;;;5.47;1.00;;;-2.90;99.90;;;;;;5024994;28;20052;-48
2021/01/12 05:39:20;;;;;;;2.05;0.90;;;-2.80;99.90;;;;;;5030482;28;20104;-47
2021/01/12 05:41:49;;;;;;;3.60;1.13;;;-2.90;99.90;;;;;;5027603;28;20049;-47
2021/01/12 05:44:20;;;;;;;1.05;0.93;;;-3.00;99.90;;;;;;5027217;28;20136;-47
2021/01/12 05:46:48;;;;;;;2.28;0.85;;;-3.10;99.90;;;;;;5026419;28;20045;-48
2021/01/12 05:49:23;;;;;;;1.65;0.77;;;-3.20;99.90;;;;;;5019838;28;20045;-48
2021/01/12 05:51:51;;;;;;;1.63;0.98;;;-3.20;99.90;;;;;;5026411;28;20052;-48
2021/01/12 05:54:27;;;;;;;1.55;0.90;;;-3.20;99.90;;;;;;5026937;28;20095;-47
2021/01/12 05:57:01;;;;;;;3.20;1.10;;;-3.20;99.90;;;;;;5011666;28;20045;-48
2021/01/12 05:59:30;;;;;;;2.13;1.20;;;-3.10;99.90;;;;;;5024017;28;20128;-48
2021/01/12 06:02:08;;;;;;;1.38;0.80;;;-3.10;99.90;;;;;;5028045;28;20064;-48
2021/01/12 06:04:36;;;;;;;1.33;1.15;;;-3.10;99.90;;;;;;5028195;28;20088;-47
2021/01/12 06:07:04;;;;;;;1.20;0.80;;;-3.20;99.90;;;;;;5025971;28;20065;-48
2021/01/12 06:09:30;;;;;;;3.17;0.88;;;-3.30;99.90;;;;;;5026057;28;20049;-48
2021/01/12 06:11:58;;;;;;;8.65;2.17;;;-3.40;99.90;;;;;;5025702;28;20057;-48
2021/01/12 06:14:26;;;;;;;19.05;6.78;;;-3.40;99.90;;;;;;5026716;28;20053;-48
2021/01/12 06:16:53;;;;;;;6.47;2.28;;;-3.50;99.90;;;;;;5025461;28;20678;-47
2021/01/12 06:19:25;;;;;;;2.35;1.33;;;-3.50;99.90;;;;;;5028443;28;20056;-48
2021/01/12 06:21:55;;;;;;;2.40;1.17;;;-3.60;99.90;;;;;;5027749;28;20467;-48
2021/01/12 06:24:40;;;;;;;3.13;1.08;;;-3.60;99.90;;;;;;5032963;28;20483;-48
2021/01/12 06:27:09;;;;;;;1.98;0.90;;;-3.70;99.90;;;;;;5019003;28;20055;-49
2021/01/12 06:29:36;;;;;;;1.75;1.02;;;-3.70;99.90;;;;;;5026639;28;20055;-50
2021/01/12 06:32:03;;;;;;;3.55;1.10;;;-3.70;99.90;;;;;;5018973;28;20041;-49
2021/01/12 06:34:31;;;;;;;2.85;0.90;;;-3.70;99.90;;;;;;5023033;28;20050;-49
2021/01/12 06:36:59;;;;;;;3.05;1.20;;;-3.70;99.90;;;;;;5025819;28;20045;-48
2021/01/12 06:39:48;;;;;;;2.78;1.40;;;-3.70;99.90;;;;;;5033106;28;20042;-49
2021/01/12 06:42:20;;;;;;;5.15;1.25;;;-3.70;99.90;;;;;;5028457;28;20360;-49
2021/01/12 06:44:49;;;;;;;2.75;1.45;;;-3.60;99.90;;;;;;5016303;28;20045;-50
2021/01/12 06:47:19;;;;;;;1.90;1.10;;;-3.60;99.90;;;;;;5031450;28;20045;-48
2021/01/12 06:49:45;;;;;;;2.78;1.05;;;-3.60;99.90;;;;;;5032619;28;20046;-48
2021/01/12 06:52:13;;;;;;;2.33;1.20;;;-3.50;99.90;;;;;;5031644;28;20056;-49
2021/01/12 06:54:42;;;;;;;1.92;1.10;;;-3.50;99.90;;;;;;5030223;28;20053;-49
2021/01/12 06:57:13;;;;;;;1.65;1.08;;;-3.40;99.90;;;;;;5016446;28;20045;-48
2021/01/12 06:59:47;;;;;;;3.50;1.27;;;-3.40;99.90;;;;;;5026230;28;20050;-48
2021/01/12 07:02:20;;;;;;;2.63;1.10;;;-3.40;99.90;;;;;;5020207;28;20053;-49
2021/01/12 07:05:09;;;;;;;2.10;0.82;;;-3.40;99.90;;;;;;5020200;28;20137;-48
2021/01/12 07:07:41;;;;;;;13.48;8.52;;;-3.40;99.90;;;;;;5030378;28;20129;-48
2021/01/12 07:10:13;;;;;;;4.18;1.40;;;-3.50;99.90;;;;;;5032980;28;20402;-48
2021/01/12 07:12:41;;;;;;;9.07;3.30;;;-3.50;99.90;;;;;;5032284;28;20459;-48
2021/01/12 07:15:09;;;;;;;4.45;1.55;;;-3.50;99.90;;;;;;5022283;28;20103;-48
2021/01/12 07:17:47;;;;;;;5.18;1.35;;;-3.50;99.90;;;;;;5031667;28;20053;-49
2021/01/12 07:20:14;;;;;;;8.93;5.25;;;-3.50;99.90;;;;;;5031236;28;20041;-49
2021/01/12 07:22:50;;;;;;;1.60;1.10;;;-3.40;99.90;;;;;;5015276;28;20046;-48
2021/01/12 07:25:28;;;;;;;2.50;1.20;;;-3.40;99.90;;;;;;5031303;28;20057;-49
2021/01/12 07:28:14;;;;;;;0.77;0.70;;;-3.40;99.90;;;;;;5032464;28;20045;-51
2021/01/12 07:30:52;;;;;;;1.35;1.10;;;-3.30;99.90;;;;;;5018956;28;20068;-48
2021/01/12 07:33:21;;;;;;;1.30;0.88;;;-3.30;99.90;;;;;;5028848;28;20084;-49
2021/01/12 07:35:52;;;;;;;2.00;0.77;;;-3.30;99.90;;;;;;5029736;28;20500;-49
2021/01/12 07:38:24;;;;;;;1.83;0.90;;;-3.30;99.90;;;;;;5025789;28;20054;-48
2021/01/12 07:40:51;;;;;;;3.30;0.90;;;-3.30;99.90;;;;;;5023273;28;20056;-49
2021/01/12 07:43:20;;;;;;;0.98;0.80;;;-3.30;99.90;;;;;;5032374;28;20056;-49
2021/01/12 07:45:47;;;;;;;4.10;1.65;;;-3.30;99.90;;;;;;5027849;28;20041;-49
2021/01/12 07:48:15;;;;;;;5.82;2.15;;;-3.40;99.90;;;;;;5031633;28;20479;-49
2021/01/12 07:50:43;;;;;;;6.65;3.72;;;-3.40;99.90;;;;;;5029425;28;20046;-51
2021/01/12 07:53:10;;;;;;;8.68;4.32;;;-3.40;99.90;;;;;;5027424;28;20480;-49
2021/01/12 07:55:47;;;;;;;5.95;3.97;;;-3.40;99.90;;;;;;5024786;28;20046;-49
2021/01/12 07:58:15;;;;;;;10.57;4.45;;;-3.40;99.90;;;;;;5021267;28;20049;-48
2021/01/12 08:00:42;;;;;;;13.50;5.75;;;-3.30;99.90;;;;;;5019378;28;20057;-49
2021/01/12 08:03:09;;;;;;;6.32;5.20;;;-3.30;99.90;;;;;;5030636;28;20057;-49
2021/01/12 08:05:36;;;;;;;5.78;2.78;;;-3.30;99.90;;;;;;5027619;28;20405;-49
2021/01/12 08:08:10;;;;;;;7.68;3.78;;;-3.30;99.90;;;;;;5026848;28;20042;-50
2021/01/12 08:10:38;;;;;;;20.55;8.15;;;-3.20;99.90;;;;;;5015765;28;20064;-48
2021/01/12 08:13:07;;;;;;;5.70;1.90;;;-3.20;99.90;;;;;;5032740;28;20049;-49
2021/01/12 08:15:36;;;;;;;10.15;3.70;;;-3.10;99.90;;;;;;5024460;28;20493;-48
2021/01/12 08:18:10;;;;;;;3.90;2.60;;;-3.00;99.90;;;;;;5031527;28;20049;-48
2021/01/12 08:20:37;;;;;;;2.45;1.60;;;-3.00;99.90;;;;;;5029254;28;20048;-48
2021/01/12 08:23:04;;;;;;;3.97;1.23;;;-2.90;99.90;;;;;;5030688;28;20049;-50
2021/01/12 08:25:34;;;;;;;2.40;1.42;;;-2.90;99.90;;;;;;5030235;28;20058;-49
2021/01/12 08:28:01;;;;;;;7.18;1.90;;;-2.90;99.90;;;;;;5028691;28;20068;-49
2021/01/12 08:30:30;;;;;;;4.32;2.53;;;-2.80;99.90;;;;;;5028285;28;20482;-48
2021/01/12 08:33:18;;;;;;;5.03;2.00;;;-2.80;99.90;;;;;;5029284;28;20049;-48
2021/01/12 08:35:51;;;;;;;12.95;3.65;;;-2.70;99.90;;;;;;5013108;28;20057;-49
2021/01/12 08:38:21;;;;;;;2.38;0.98;;;-2.60;99.90;;;;;;5027406;28;20054;-49
2021/01/12 08:40:49;;;;;;;4.57;1.33;;;-2.50;99.90;;;;;;5022798;28;20053;-49
2021/01/12 08:43:18;;;;;;;2.92;1.40;;;-2.50;99.90;;;;;;5023396;28;20045;-49
2021/01/12 08:45:46;;;;;;;4.82;1.50;;;-2.40;99.90;;;;;;5020710;28;20056;-52
2021/01/12 08:48:15;;;;;;;12.93;4.30;;;-2.40;99.90;;;;;;5031553;28;20056;-48
2021/01/12 08:50:46;;;;;;;10.02;4.13;;;-2.30;99.90;;;;;;5031353;28;20053;-49
2021/01/12 08:53:17;;;;;;;9.27;5.28;;;-2.20;99.90;;;;;;5021266;28;20494;-48
2021/01/12 08:55:45;;;;;;;4.30;2.60;;;-2.20;99.90;;;;;;5024916;28;20045;-49
2021/01/12 08:58:12;;;;;;;7.20;3.70;;;-2.10;99.90;;;;;;5019694;28;20417;-51
2021/01/12 09:00:41;;;;;;;3.38;2.00;;;-2.00;99.90;;;;;;5030511;28;20085;-49
2021/01/12 09:03:08;;;;;;;6.15;3.13;;;-1.90;99.90;;;;;;5028879;28;20064;-49
2021/01/12 09:05:40;;;;;;;4.50;2.50;;;-1.90;99.90;;;;;;5014997;28;20046;-49
2021/01/12 09:08:12;;;;;;;14.82;3.78;;;-1.70;99.90;;;;;;5027200;28;20053;-49
2021/01/12 09:10:39;;;;;;;16.55;6.10;;;-1.60;99.90;;;;;;5014769;28;20495;-49
2021/01/12 09:13:09;;;;;;;12.23;4.30;;;-1.50;99.90;;;;;;5031206;28;20475;-49
2021/01/12 09:15:41;;;;;;;6.90;3.95;;;-1.40;99.90;;;;;;5026609;28;20053;-49
2021/01/12 09:18:08;;;;;;;9.40;4.30;;;-1.20;99.90;;;;;;5024745;28;20072;-49
2021/01/12 09:20:38;;;;;;;6.22;3.47;;;-1.10;99.90;;;;;;5024526;28;20413;-50
2021/01/12 09:23:09;;;;;;;15.23;4.38;;;-1.00;99.90;;;;;;5027537;28;20057;-49
2021/01/12 09:25:41;;;;;;;7.50;4.72;;;-0.90;99.90;;;;;;5030351;28;20056;-49
2021/01/12 09:28:13;;;;;;;6.97;3.22;;;-0.80;99.90;;;;;;5026275;28;20056;-49
2021/01/12 09:30:41;;;;;;;6.80;3.38;;;-0.70;99.90;;;;;;5023420;28;20045;-49
2021/01/12 09:33:11;;;;;;;10.73;5.10;;;-0.70;99.90;;;;;;5029853;28;20045;-49
2021/01/12 09:35:38;;;;;;;5.65;2.97;;;-0.60;99.90;;;;;;5014453;28;20053;-49
2021/01/12 09:38:05;;;;;;;7.10;4.50;;;-0.60;99.90;;;;;;5027642;28;20699;-50
2021/01/12 09:40:32;;;;;;;9.77;4.13;;;-0.50;99.90;;;;;;5029314;28;20057;-49
2021/01/12 09:42:58;;;;;;;11.60;6.47;;;-0.40;99.90;;;;;;5029341;28;20045;-49
2021/01/12 09:45:26;;;;;;;10.48;5.63;;;-0.30;99.90;;;;;;5016511;28;20051;-50
2021/01/12 09:47:53;;;;;;;9.52;5.28;;;-0.30;99.90;;;;;;5030873;28;20056;-50
2021/01/12 09:50:19;;;;;;;13.25;3.92;;;-0.20;99.90;;;;;;5029660;28;20056;-49
2021/01/12 09:52:46;;;;;;;8.45;4.20;;;0.10;99.90;;;;;;5015325;28;20053;-49
2021/01/12 09:55:12;;;;;;;8.35;5.20;;;0.20;99.90;;;;;;5025153;28;20482;-49
2021/01/12 09:57:39;;;;;;;8.23;2.47;;;0.30;99.90;;;;;;5028131;28;20057;-50
2021/01/12 10:00:08;;;;;;;3.42;2.55;;;0.30;99.90;;;;;;5029596;28;20054;-49
2021/01/12 10:02:34;;;;;;;3.30;1.42;;;0.40;99.90;;;;;;5020566;28;20048;-50
2021/01/12 10:05:01;;;;;;;3.28;1.30;;;0.50;99.90;;;;;;5023889;28;20364;-50
2021/01/12 10:07:28;;;;;;;3.13;1.67;;;0.60;99.90;;;;;;5030125;28;20077;-50
2021/01/12 10:09:54;;;;;;;4.10;1.27;;;0.70;99.90;;;;;;5033800;28;20053;-49
2021/01/12 10:12:20;;;;;;;1.95;1.48;;;0.80;99.90;;;;;;5031303;28;20061;-49
2021/01/12 10:14:47;;;;;;;4.43;1.92;;;0.90;99.90;;;;;;5033700;28;20053;-49
2021/01/12 10:17:13;;;;;;;14.35;6.30;;;1.00;99.90;;;;;;5031670;28;20041;-50
2021/01/12 10:19:40;;;;;;;13.20;5.00;;;1.30;99.90;;;;;;5025719;28;20048;-50
2021/01/12 10:22:08;;;;;;;2.55;1.58;;;1.40;99.90;;;;;;5031309;28;20535;-49
2021/01/12 10:24:34;;;;;;;4.90;1.33;;;1.50;99.90;;;;;;5032199;28;20049;-50
2021/01/12 10:27:01;;;;;;;2.05;1.30;;;1.60;99.90;;;;;;5034052;28;20891;-49
2021/01/12 10:29:29;;;;;;;2.17;1.20;;;1.70;99.90;;;;;;5032150;28;20136;-52
2021/01/12 10:31:55;;;;;;;1.67;1.02;;;2.20;99.90;;;;;;5016351;28;20046;-50
2021/01/12 10:34:24;;;;;;;3.20;1.20;;;2.40;99.90;;;;;;5031533;28;20470;-49
2021/01/12 10:36:52;;;;;;;3.65;1.20;;;2.60;99.90;;;;;;5030809;28;20077;-49
2021/01/12 10:39:18;;;;;;;6.45;1.80;;;2.50;99.90;;;;;;5032135;28;20076;-50
2021/01/12 10:41:45;;;;;;;5.60;1.50;;;3.10;99.90;;;;;;5032346;28;20052;-51
2021/01/12 10:44:12;;;;;;;3.28;1.17;;;3.00;99.90;;;;;;5033695;28;20050;-50
2021/01/12 10:46:38;;;;;;;3.95;1.42;;;3.20;99.90;;;;;;5032163;28;20061;-50
2021/01/12 10:49:05;;;;;;;2.05;1.05;;;3.00;99.90;;;;;;5032712;28;20471;-49
2021/01/12 10:51:32;;;;;;;4.80;2.72;;;2.90;99.90;;;;;;5028792;28;20046;-50
2021/01/12 10:53:58;;;;;;;4.20;1.90;;;3.10;99.90;;;;;;5018588;28;20041;-49
2021/01/12 10:56:25;;;;;;;4.68;1.75;;;3.70;99.90;;;;;;5029324;28;20057;-49
2021/01/12 10:58:52;;;;;;;3.80;2.30;;;3.70;99.90;;;;;;5023046;28;20406;-49
2021/01/12 11:01:20;;;;;;;4.82;2.45;;;3.70;99.90;;;;;;5032699;28;20061;-50
2021/01/12 11:03:46;;;;;;;4.50;1.80;;;4.10;99.90;;;;;;5032972;28;20088;-50
2021/01/12 11:06:14;;;;;;;4.13;2.38;;;4.30;99.90;;;;;;5017443;28;20057;-50
2021/01/12 11:08:41;;;;;;;0.90;0.80;;;4.50;99.90;;;;;;5029825;28;20048;-49
2021/01/12 11:11:08;;;;;;;6.13;1.50;;;4.50;99.90;;;;;;5032773;28;20046;-50
2021/01/12 11:13:35;;;;;;;4.90;1.10;;;4.60;99.90;;;;;;5023374;28;20049;-50
2021/01/12 11:16:01;;;;;;;3.17;1.60;;;4.60;99.90;;;;;;5021429;28;20050;-49
2021/01/12 11:18:28;;;;;;;3.03;1.17;;;5.10;99.90;;;;;;5032625;28;20060;-51
2021/01/12 11:20:55;;;;;;;3.78;1.40;;;5.00;99.90;;;;;;5030725;28;20457;-50
2021/01/12 11:23:21;;;;;;;1.95;1.33;;;5.10;99.90;;;;;;5027010;28;20060;-50
2021/01/12 11:25:48;;;;;;;2.10;0.80;;;5.10;99.90;;;;;;5028324;28;20049;-49
2021/01/12 11:28:14;;;;;;;1.05;0.80;;;5.40;99.90;;;;;;5015713;28;20502;-50
2021/01/12 11:30:41;;;;;;;2.05;0.70;;;5.50;99.90;;;;;;5031538;28;20510;-49
2021/01/12 11:33:10;;;;;;;10.00;1.00;;;5.60;99.90;;;;;;5026970;28;20120;-49
2021/01/12 11:35:36;;;;;;;0.90;0.50;;;5.80;99.90;;;;;;5026946;28;20465;-49
2021/01/12 11:38:03;;;;;;;0.60;0.50;;;5.80;99.90;;;;;;5031534;28;20394;-49
2021/01/12 11:40:29;;;;;;;3.53;0.70;;;6.00;99.90;;;;;;5033053;28;20890;-49
2021/01/12 11:42:58;;;;;;;1.38;0.70;;;6.20;99.90;;;;;;5028778;28;20072;-50
2021/01/12 11:45:24;;;;;;;3.22;1.00;;;6.40;99.20;;;;;;5030575;28;20056;-50
2021/01/12 11:47:51;;;;;;;2.15;0.70;;;6.30;98.60;;;;;;5032240;28;20041;-50
2021/01/12 11:50:17;;;;;;;0.63;0.60;;;6.50;99.40;;;;;;5031843;28;20061;-50
2021/01/12 11:52:44;;;;;;;0.60;0.45;;;6.50;99.40;;;;;;5032420;28;20052;-51
2021/01/12 11:55:11;;;;;;;0.50;0.50;;;6.50;99.80;;;;;;5031873;28;20053;-50
2021/01/12 11:57:37;;;;;;;0.60;0.50;;;6.70;97.20;;;;;;5015645;28;20050;-50
2021/01/12 12:00:05;;;;;;;2.20;0.45;;;6.80;98.20;;;;;;5029632;28;20486;-49
2021/01/12 12:02:32;;;;;;;1.15;0.30;;;7.00;96.50;;;;;;5030864;28;20049;-50
2021/01/12 12:05:00;;;;;;;0.32;0.20;;;7.00;96.30;;;;;;5026749;28;20379;-50
2021/01/12 12:07:27;;;;;;;0.20;0.10;;;7.20;97.10;;;;;;5019297;28;20498;-50
2021/01/12 12:09:55;;;;;;;2.40;0.28;;;7.00;87.60;;;;;;5031854;28;20037;-50
2021/01/12 12:12:21;;;;;;;2.38;0.82;;;6.90;90.80;;;;;;5029665;28;20064;-50
2021/01/12 12:14:48;;;;;;;1.35;1.00;;;7.10;96.60;;;;;;5014890;28;20058;-54
2021/01/12 12:17:14;;;;;;;2.15;0.30;;;7.40;94.30;;;;;;5028520;28;20414;-53
2021/01/12 12:19:41;;;;;;;2.35;0.77;;;7.80;90.00;;;;;;5013561;28;20631;-53
2021/01/12 12:22:08;;;;;;;0.32;0.30;;;7.90;92.20;;;;;;5031256;28;20053;-51
2021/01/12 12:24:34;;;;;;;0.40;0.30;;;7.80;88.70;;;;;;5030305;28;20052;-51
2021/01/12 12:27:02;;;;;;;2.20;0.70;;;7.60;86.90;;;;;;5031218;28;20462;-53
2021/01/12 12:29:29;;;;;;;1.15;0.60;;;7.50;85.20;;;;;;5029652;28;20055;-54
2021/01/12 12:32:06;;;;;;;0.40;0.30;;;7.50;84.30;;;;;;5030624;28;20052;-53
2021/01/12 12:34:33;;;;;;;1.95;0.20;;;7.50;86.40;;;;;;5028806;28;20092;-54
2021/01/12 12:36:59;;;;;;;1.13;0.10;;;7.50;89.50;;;;;;5022637;28;20391;-54
2021/01/12 12:39:26;;;;;;;0.13;0.10;;;7.70;89.50;;;;;;5025625;28;20132;-54
2021/01/12 12:41:53;;;;;;;0.28;0.10;;;7.90;89.40;;;;;;5029425;28;20050;-54
2021/01/12 12:44:19;;;;;;;0.20;0.10;;;8.10;85.70;;;;;;5031434;28;20049;-52
2021/01/12 12:46:46;;;;;;;0.22;0.20;;;8.30;91.30;;;;;;5028186;28;20060;-50
2021/01/12 12:49:13;;;;;;;0.30;0.25;;;8.40;85.80;;;;;;5031413;28;20528;-51
2021/01/12 12:51:40;;;;;;;0.15;0.10;;;7.90;81.90;;;;;;5029643;28;20052;-50
2021/01/12 12:54:07;;;;;;;1.52;0.30;;;7.80;86.30;;;;;;5028731;28;20471;-50